x

Burns Harbor, In (bhri3) Weather Station

11:40am - Tue 22nd Jul 2014 All times are CDT. -5 hours from GMT.

  • Wind
    14mph, 22mph gusts
  • Air Temp 80°f
  • Sea Pressure 1017.3mb
  • Burns Harbor, In
  • Burns Harbor, In

More Historic Weather Station data

Upgrade to MSW Pro to gain access to the past 30 days of data for over 8000 Wavebouys and Weather Stations around the globe.

Join Pro

Comparision Forecast

View Surf forecast
   
Tue 07/22 11:40am 14 22 mph 1017.3mb 80f
11:30am 17 24 mph 1017.3mb 80f
11:20am 18 24 mph 1017.6mb 80f
11:10am 16 23 mph 1017.6mb 80f
11:00am 20 26 mph 1017.3mb 80f
10:40am 20 25 mph 1016.9mb 79f
10:30am 18 25 mph 1016.9mb 78f
10:20am 18 23 mph 1016.9mb 79f
10:10am 20 28 mph 1016.6mb 78f
10:00am 21 26 mph 1016.9mb 78f
9:40am 14 20 mph 1017.3mb 77f
9:30am 14 21 mph 1016.9mb 78f
9:20am 16 23 mph 1016.9mb 77f
9:10am 15 21 mph 1017.3mb 76f
9:00am 15 21 mph 1017.6mb 76f
8:40am 16 25 mph 1017.9mb 75f
5:40am 9 11 mph 1018.6mb 69f
5:30am 9 11 mph 1018.6mb 69f
5:20am 9 11 mph 1018.6mb 69f
5:10am 9 10 mph 1018.6mb 69f
5:00am 9 10 mph 1018.6mb 69f
4:40am 9 14 mph 1018.6mb 70f
4:30am 10 11 mph 1018.3mb 69f
4:20am 9 10 mph 1018.6mb 69f
4:10am 9 11 mph 1018.6mb 69f
4:00am 9 10 mph 1018.6mb 69f
3:40am 8 9 mph 1018.6mb 69f
3:30am 8 9 mph 1019mb 69f
3:20am 8 9 mph 1018.6mb 69f
3:10am 8 9 mph 1018.6mb 69f
3:00am 8 9 mph 1018.6mb 70f
2:40am 8 9 mph 1018.6mb 70f
2:30am 8 9 mph 1018.6mb 70f
2:20am 7 8 mph 1018.6mb 70f
2:10am 7 9 mph 1018.6mb 71f
2:00am 8 9 mph 1018.6mb 71f
1:40am 7 9 mph 1018.6mb 71f
1:30am 7 9 mph 1018.6mb 71f
1:20am 7 8 mph 1018.6mb 71f
1:10am 8 9 mph 1018.6mb 71f
1:00am 8 9 mph 1018.6mb 71f
12:40am 7 9 mph 1018.6mb 71f
12:30am 8 10 mph 1018.6mb 72f
12:20am 8 10 mph 1018.6mb 72f
12:10am 8 10 mph 1018.6mb 73f
12:00am 8 9 mph 1018.6mb 72f
Mon 07/21 10:40pm 7 9 mph 1019mb 74f
10:30pm 8 9 mph 1019mb 74f
10:20pm 8 9 mph 1019mb 74f
10:10pm 8 9 mph 1019mb 75f
10:00pm 8
mph
1019.3mb 75f
8:40pm 8 9 mph 1019mb 78f
8:30pm 8 10 mph 1019mb 78f
8:20pm 8 10 mph 1018.6mb 78f
8:10pm 8 9 mph 1018.6mb 79f
8:00pm 9 10 mph 1018.6mb 79f
5:40am 3 5 mph 1019.6mb 66f
5:30am 3 5 mph 1019.6mb 66f
5:20am 3 6 mph 1019.3mb 66f
5:10am 5 6 mph 1019.3mb 66f
5:00am 5 6 mph 1019.3mb 67f
Sun 07/20 7:40pm 7 8 mph 1017.3mb 73f
7:10pm 7 9 mph 1017.3mb 74f
7:00pm 8 9 mph 1016.9mb 74f
5:40pm 8 9 mph 1017.3mb 74f
5:30pm 7 9 mph 1017.3mb 75f
5:20pm 7 9 mph 1017.3mb 75f
5:10pm 7 9 mph 1017.3mb 75f
5:00pm 7 8 mph 1017.3mb 75f
7:40am 5 6 mph 1019mb 67f
7:30am 5 7 mph 1019mb 67f
4:40am 5 7 mph 1017.9mb 64f
4:30am 3 6 mph 1017.6mb 64f
4:20am 5 6 mph 1017.6mb 65f
4:10am 5 6 mph 1017.6mb 65f
4:00am 6 7 mph 1017.6mb 65f
3:40am 6 7 mph 1017.6mb 65f
3:30am 6 7 mph 1017.6mb 65f
3:20am 5 6 mph 1017.6mb 65f
3:10am 6 7 mph 1017.6mb 65f
3:00am 5 7 mph 1017.6mb 65f
Sat 07/19 4:40pm 9 10 mph 1017.3mb 74f
4:30pm 10
mph
1017.6mb 73f
4:20pm 9 10 mph 1017.6mb 73f
4:10pm 10
mph
1017.6mb 73f
4:00pm 9 10 mph 1017.6mb 73f
11:40am 6 7 mph 1019.3mb 69f
11:30am 6
mph
1019.3mb 68f
11:20am 6
mph
1019.3mb 68f
11:10am 5 6 mph 1019.6mb 68f
11:00am 6 7 mph 1019.6mb 68f